sensor_id;sensor_type;location;lat;lon;timestamp;temperature;humidity
69776;DHT22;57049;51.450;-2.516;2024-01-27T00:00:09;2.08;98.68
69776;DHT22;57049;51.450;-2.516;2024-01-27T00:02:35;2.08;98.84
69776;DHT22;57049;51.450;-2.516;2024-01-27T00:05:00;2.11;98.76
69776;DHT22;57049;51.450;-2.516;2024-01-27T00:07:26;2.14;98.87
69776;DHT22;57049;51.450;-2.516;2024-01-27T00:09:53;2.13;98.69
69776;DHT22;57049;51.450;-2.516;2024-01-27T00:12:19;2.15;98.75
69776;DHT22;57049;51.450;-2.516;2024-01-27T00:14:44;2.17;98.61
69776;DHT22;57049;51.450;-2.516;2024-01-27T00:17:10;2.15;98.54
69776;DHT22;57049;51.450;-2.516;2024-01-27T00:19:35;2.15;98.61
69776;DHT22;57049;51.450;-2.516;2024-01-27T00:22:01;2.13;98.68
69776;DHT22;57049;51.450;-2.516;2024-01-27T00:24:27;2.08;98.57
69776;DHT22;57049;51.450;-2.516;2024-01-27T00:26:55;2.05;98.73
69776;DHT22;57049;51.450;-2.516;2024-01-27T00:29:20;2.07;98.77
69776;DHT22;57049;51.450;-2.516;2024-01-27T00:31:46;2.04;98.76
69776;DHT22;57049;51.450;-2.516;2024-01-27T00:34:11;2.03;98.88
69776;DHT22;57049;51.450;-2.516;2024-01-27T00:36:37;2.01;98.94
69776;DHT22;57049;51.450;-2.516;2024-01-27T00:39:03;1.98;98.91
69776;DHT22;57049;51.450;-2.516;2024-01-27T00:41:29;1.94;99.00
69776;DHT22;57049;51.450;-2.516;2024-01-27T00:43:55;1.93;99.18
69776;DHT22;57049;51.450;-2.516;2024-01-27T00:46:20;1.90;99.14
69776;DHT22;57049;51.450;-2.516;2024-01-27T00:48:46;1.94;99.14
69776;DHT22;57049;51.450;-2.516;2024-01-27T00:51:12;1.95;99.13
69776;DHT22;57049;51.450;-2.516;2024-01-27T00:53:37;1.97;99.25
69776;DHT22;57049;51.450;-2.516;2024-01-27T00:56:03;1.94;99.12
69776;DHT22;57049;51.450;-2.516;2024-01-27T00:58:29;1.91;99.22
69776;DHT22;57049;51.450;-2.516;2024-01-27T01:00:55;1.90;99.14
69776;DHT22;57049;51.450;-2.516;2024-01-27T01:03:21;1.91;99.33
69776;DHT22;57049;51.450;-2.516;2024-01-27T01:05:46;1.93;99.41
69776;DHT22;57049;51.450;-2.516;2024-01-27T01:08:12;1.88;99.25
69776;DHT22;57049;51.450;-2.516;2024-01-27T01:10:37;1.87;99.40
69776;DHT22;57049;51.450;-2.516;2024-01-27T01:13:03;1.85;99.42
69776;DHT22;57049;51.450;-2.516;2024-01-27T01:15:28;1.80;99.15
69776;DHT22;57049;51.450;-2.516;2024-01-27T01:17:54;1.77;99.44
69776;DHT22;57049;51.450;-2.516;2024-01-27T01:20:19;1.74;99.18
69776;DHT22;57049;51.450;-2.516;2024-01-27T01:22:45;1.66;99.17
69776;DHT22;57049;51.450;-2.516;2024-01-27T01:25:10;1.64;99.53
69776;DHT22;57049;51.450;-2.516;2024-01-27T01:27:36;1.62;99.41
69776;DHT22;57049;51.450;-2.516;2024-01-27T01:30:01;1.56;99.65
69776;DHT22;57049;51.450;-2.516;2024-01-27T01:32:26;1.53;99.73
69776;DHT22;57049;51.450;-2.516;2024-01-27T01:34:52;1.63;99.99
69776;DHT22;57049;51.450;-2.516;2024-01-27T01:37:17;1.59;99.69
69776;DHT22;57049;51.450;-2.516;2024-01-27T01:39:43;1.50;99.53
69776;DHT22;57049;51.450;-2.516;2024-01-27T01:42:08;1.43;99.61
69776;DHT22;57049;51.450;-2.516;2024-01-27T01:44:34;1.42;99.83
69776;DHT22;57049;51.450;-2.516;2024-01-27T01:46:59;1.42;99.94
69776;DHT22;57049;51.450;-2.516;2024-01-27T01:49:26;1.43;99.99
69776;DHT22;57049;51.450;-2.516;2024-01-27T01:51:51;1.38;99.91
69776;DHT22;57049;51.450;-2.516;2024-01-27T01:54:18;1.38;99.89
69776;DHT22;57049;51.450;-2.516;2024-01-27T01:56:43;1.38;99.74
69776;DHT22;57049;51.450;-2.516;2024-01-27T01:59:09;1.36;99.92
69776;DHT22;57049;51.450;-2.516;2024-01-27T02:01:34;1.33;99.99
69776;DHT22;57049;51.450;-2.516;2024-01-27T02:04:00;1.32;99.99
69776;DHT22;57049;51.450;-2.516;2024-01-27T02:06:25;1.31;99.99
69776;DHT22;57049;51.450;-2.516;2024-01-27T02:08:51;1.35;99.99
69776;DHT22;57049;51.450;-2.516;2024-01-27T02:11:17;1.43;99.99
69776;DHT22;57049;51.450;-2.516;2024-01-27T02:13:43;1.42;99.99
69776;DHT22;57049;51.450;-2.516;2024-01-27T02:16:09;1.47;99.99
69776;DHT22;57049;51.450;-2.516;2024-01-27T02:18:34;1.63;99.99
69776;DHT22;57049;51.450;-2.516;2024-01-27T02:21:00;1.73;99.99
69776;DHT22;57049;51.450;-2.516;2024-01-27T02:23:25;1.80;99.85
69776;DHT22;57049;51.450;-2.516;2024-01-27T02:25:51;1.84;99.45
69776;DHT22;57049;51.450;-2.516;2024-01-27T02:28:17;1.87;99.34
69776;DHT22;57049;51.450;-2.516;2024-01-27T02:30:42;1.81;99.20
69776;DHT22;57049;51.450;-2.516;2024-01-27T02:33:08;1.80;99.16
69776;DHT22;57049;51.450;-2.516;2024-01-27T02:35:33;1.77;99.04
69776;DHT22;57049;51.450;-2.516;2024-01-27T02:37:59;1.74;98.95
69776;DHT22;57049;51.450;-2.516;2024-01-27T02:40:24;1.68;98.99
69776;DHT22;57049;51.450;-2.516;2024-01-27T02:42:50;1.66;98.95
69776;DHT22;57049;51.450;-2.516;2024-01-27T02:45:15;1.56;98.94
69776;DHT22;57049;51.450;-2.516;2024-01-27T02:47:40;1.52;99.03
69776;DHT22;57049;51.450;-2.516;2024-01-27T02:50:06;1.46;99.12
69776;DHT22;57049;51.450;-2.516;2024-01-27T02:52:32;1.43;99.24
69776;DHT22;57049;51.450;-2.516;2024-01-27T02:54:58;1.44;99.28
69776;DHT22;57049;51.450;-2.516;2024-01-27T02:57:26;1.39;99.27
69776;DHT22;57049;51.450;-2.516;2024-01-27T02:59:52;1.38;99.39
69776;DHT22;57049;51.450;-2.516;2024-01-27T03:02:20;1.35;99.37
69776;DHT22;57049;51.450;-2.516;2024-01-27T03:04:46;1.29;99.23
69776;DHT22;57049;51.450;-2.516;2024-01-27T03:07:11;1.29;99.46
69776;DHT22;57049;51.450;-2.516;2024-01-27T03:09:37;1.23;99.33
69776;DHT22;57049;51.450;-2.516;2024-01-27T03:12:03;1.22;99.50
69776;DHT22;57049;51.450;-2.516;2024-01-27T03:14:28;1.22;99.49
69776;DHT22;57049;51.450;-2.516;2024-01-27T03:16:54;1.25;99.57
69776;DHT22;57049;51.450;-2.516;2024-01-27T03:19:19;1.25;99.33
69776;DHT22;57049;51.450;-2.516;2024-01-27T03:21:45;1.22;99.40
69776;DHT22;57049;51.450;-2.516;2024-01-27T03:24:14;1.16;99.42
69776;DHT22;57049;51.450;-2.516;2024-01-27T03:26:40;1.13;99.59
69776;DHT22;57049;51.450;-2.516;2024-01-27T03:29:05;1.08;99.56
69776;DHT22;57049;51.450;-2.516;2024-01-27T03:31:31;1.03;99.51
69776;DHT22;57049;51.450;-2.516;2024-01-27T03:34:00;0.95;99.55
69776;DHT22;57049;51.450;-2.516;2024-01-27T03:36:26;0.89;99.68
69776;DHT22;57049;51.450;-2.516;2024-01-27T03:38:52;0.87;99.70
69776;DHT22;57049;51.450;-2.516;2024-01-27T03:41:17;0.84;99.81
69776;DHT22;57049;51.450;-2.516;2024-01-27T03:43:43;0.87;99.93
69776;DHT22;57049;51.450;-2.516;2024-01-27T03:46:08;0.85;99.95
69776;DHT22;57049;51.450;-2.516;2024-01-27T03:48:34;0.89;99.96
69776;DHT22;57049;51.450;-2.516;2024-01-27T03:51:03;0.88;99.93
69776;DHT22;57049;51.450;-2.516;2024-01-27T03:53:31;0.89;99.94
69776;DHT22;57049;51.450;-2.516;2024-01-27T03:55:57;0.88;99.85
69776;DHT22;57049;51.450;-2.516;2024-01-27T03:58:29;0.91;99.91
69776;DHT22;57049;51.450;-2.516;2024-01-27T04:00:54;0.98;99.91
69776;DHT22;57049;51.450;-2.516;2024-01-27T04:03:20;0.96;99.84
69776;DHT22;57049;51.450;-2.516;2024-01-27T04:05:45;0.99;99.83
69776;DHT22;57049;51.450;-2.516;2024-01-27T04:08:11;1.13;99.88
69776;DHT22;57049;51.450;-2.516;2024-01-27T04:10:36;1.19;99.69
69776;DHT22;57049;51.450;-2.516;2024-01-27T04:13:02;1.26;99.52
69776;DHT22;57049;51.450;-2.516;2024-01-27T04:15:27;1.33;99.38
69776;DHT22;57049;51.450;-2.516;2024-01-27T04:17:53;1.38;99.19
69776;DHT22;57049;51.450;-2.516;2024-01-27T04:20:19;1.35;99.17
69776;DHT22;57049;51.450;-2.516;2024-01-27T04:22:45;1.31;99.01
69776;DHT22;57049;51.450;-2.516;2024-01-27T04:25:10;1.28;98.99
69776;DHT22;57049;51.450;-2.516;2024-01-27T04:27:37;1.25;99.04
69776;DHT22;57049;51.450;-2.516;2024-01-27T04:30:06;1.22;99.13
69776;DHT22;57049;51.450;-2.516;2024-01-27T04:32:32;1.21;99.14
69776;DHT22;57049;51.450;-2.516;2024-01-27T04:34:58;1.18;99.10
69776;DHT22;57049;51.450;-2.516;2024-01-27T04:37:23;1.23;99.20
69776;DHT22;57049;51.450;-2.516;2024-01-27T04:39:48;1.26;99.23
69776;DHT22;57049;51.450;-2.516;2024-01-27T04:42:14;1.32;99.12
69776;DHT22;57049;51.450;-2.516;2024-01-27T04:44:40;1.50;99.00
69776;DHT22;57049;51.450;-2.516;2024-01-27T04:47:06;1.57;98.92
69776;DHT22;57049;51.450;-2.516;2024-01-27T04:49:32;1.63;98.57
69776;DHT22;57049;51.450;-2.516;2024-01-27T04:51:57;1.71;98.32
69776;DHT22;57049;51.450;-2.516;2024-01-27T04:54:23;1.83;98.24
69776;DHT22;57049;51.450;-2.516;2024-01-27T04:56:48;1.90;97.90
69776;DHT22;57049;51.450;-2.516;2024-01-27T04:59:14;1.94;97.64
69776;DHT22;57049;51.450;-2.516;2024-01-27T05:01:44;1.97;97.63
69776;DHT22;57049;51.450;-2.516;2024-01-27T05:04:13;1.97;97.63
69776;DHT22;57049;51.450;-2.516;2024-01-27T05:06:38;1.95;97.45
69776;DHT22;57049;51.450;-2.516;2024-01-27T05:09:06;1.97;97.49
69776;DHT22;57049;51.450;-2.516;2024-01-27T05:11:33;1.97;97.63
69776;DHT22;57049;51.450;-2.516;2024-01-27T05:14:01;1.98;97.81
69776;DHT22;57049;51.450;-2.516;2024-01-27T05:16:27;1.97;97.85
69776;DHT22;57049;51.450;-2.516;2024-01-27T05:18:53;1.95;97.79
69776;DHT22;57049;51.450;-2.516;2024-01-27T05:21:21;1.95;97.86
69776;DHT22;57049;51.450;-2.516;2024-01-27T05:23:46;1.95;97.88
69776;DHT22;57049;51.450;-2.516;2024-01-27T05:26:12;1.91;97.85
69776;DHT22;57049;51.450;-2.516;2024-01-27T05:28:38;1.98;97.97
69776;DHT22;57049;51.450;-2.516;2024-01-27T05:31:07;2.07;97.89
69776;DHT22;57049;51.450;-2.516;2024-01-27T05:33:34;2.13;97.59
69776;DHT22;57049;51.450;-2.516;2024-01-27T05:36:00;2.15;97.47
69776;DHT22;57049;51.450;-2.516;2024-01-27T05:38:25;2.20;97.49
69776;DHT22;57049;51.450;-2.516;2024-01-27T05:40:54;2.15;97.04
69776;DHT22;57049;51.450;-2.516;2024-01-27T05:43:22;2.15;97.05
69776;DHT22;57049;51.450;-2.516;2024-01-27T05:45:48;2.14;97.08
69776;DHT22;57049;51.450;-2.516;2024-01-27T05:48:14;2.13;97.01
69776;DHT22;57049;51.450;-2.516;2024-01-27T05:50:42;2.07;97.15
69776;DHT22;57049;51.450;-2.516;2024-01-27T05:53:08;2.08;97.16
69776;DHT22;57049;51.450;-2.516;2024-01-27T05:55:34;2.05;97.31
69776;DHT22;57049;51.450;-2.516;2024-01-27T05:57:59;2.07;97.30
69776;DHT22;57049;51.450;-2.516;2024-01-27T06:00:25;2.08;97.42
69776;DHT22;57049;51.450;-2.516;2024-01-27T06:02:50;2.07;97.37
69776;DHT22;57049;51.450;-2.516;2024-01-27T06:05:16;2.05;97.36
69776;DHT22;57049;51.450;-2.516;2024-01-27T06:07:42;2.01;97.38
69776;DHT22;57049;51.450;-2.516;2024-01-27T06:10:08;2.00;97.46
69776;DHT22;57049;51.450;-2.516;2024-01-27T06:12:34;2.03;97.55
69776;DHT22;57049;51.450;-2.516;2024-01-27T06:15:00;2.07;97.47
69776;DHT22;57049;51.450;-2.516;2024-01-27T06:17:25;2.00;97.40
69776;DHT22;57049;51.450;-2.516;2024-01-27T06:19:51;1.98;97.57
69776;DHT22;57049;51.450;-2.516;2024-01-27T06:22:16;2.01;97.65
69776;DHT22;57049;51.450;-2.516;2024-01-27T06:24:43;2.04;97.63
69776;DHT22;57049;51.450;-2.516;2024-01-27T06:27:11;2.08;97.59
69776;DHT22;57049;51.450;-2.516;2024-01-27T06:29:37;2.15;97.46
69776;DHT22;57049;51.450;-2.516;2024-01-27T06:32:02;2.22;97.39
69776;DHT22;57049;51.450;-2.516;2024-01-27T06:34:28;2.28;97.39
69776;DHT22;57049;51.450;-2.516;2024-01-27T06:36:53;2.35;97.11
69776;DHT22;57049;51.450;-2.516;2024-01-27T06:39:19;2.34;97.19
69776;DHT22;57049;51.450;-2.516;2024-01-27T06:41:47;2.39;96.99
69776;DHT22;57049;51.450;-2.516;2024-01-27T06:44:12;2.49;96.71
69776;DHT22;57049;51.450;-2.516;2024-01-27T06:46:38;2.44;96.79
69776;DHT22;57049;51.450;-2.516;2024-01-27T06:49:03;2.44;96.95
69776;DHT22;57049;51.450;-2.516;2024-01-27T06:51:29;2.44;96.72
69776;DHT22;57049;51.450;-2.516;2024-01-27T06:53:54;2.46;96.75
69776;DHT22;57049;51.450;-2.516;2024-01-27T06:56:23;2.49;96.73
69776;DHT22;57049;51.450;-2.516;2024-01-27T06:58:54;2.53;96.83
69776;DHT22;57049;51.450;-2.516;2024-01-27T07:01:19;2.58;96.50
69776;DHT22;57049;51.450;-2.516;2024-01-27T07:03:44;2.58;96.47
69776;DHT22;57049;51.450;-2.516;2024-01-27T07:06:10;2.59;96.58
69776;DHT22;57049;51.450;-2.516;2024-01-27T07:08:35;2.60;96.43
69776;DHT22;57049;51.450;-2.516;2024-01-27T07:11:01;2.59;96.54
69776;DHT22;57049;51.450;-2.516;2024-01-27T07:13:27;2.60;96.31
69776;DHT22;57049;51.450;-2.516;2024-01-27T07:15:54;2.66;96.20
69776;DHT22;57049;51.450;-2.516;2024-01-27T07:18:20;2.65;96.16
69776;DHT22;57049;51.450;-2.516;2024-01-27T07:20:47;2.66;96.11
69776;DHT22;57049;51.450;-2.516;2024-01-27T07:23:13;2.66;96.28
69776;DHT22;57049;51.450;-2.516;2024-01-27T07:25:38;2.66;96.46
69776;DHT22;57049;51.450;-2.516;2024-01-27T07:28:04;2.62;96.37
69776;DHT22;57049;51.450;-2.516;2024-01-27T07:30:30;2.53;96.44
69776;DHT22;57049;51.450;-2.516;2024-01-27T07:32:56;2.53;96.60
69776;DHT22;57049;51.450;-2.516;2024-01-27T07:35:22;2.53;96.62
69776;DHT22;57049;51.450;-2.516;2024-01-27T07:37:47;2.53;96.72
69776;DHT22;57049;51.450;-2.516;2024-01-27T07:40:13;2.58;96.67
69776;DHT22;57049;51.450;-2.516;2024-01-27T07:42:38;2.56;96.66
69776;DHT22;57049;51.450;-2.516;2024-01-27T07:45:06;2.53;96.63
69776;DHT22;57049;51.450;-2.516;2024-01-27T07:47:34;2.55;96.83
69776;DHT22;57049;51.450;-2.516;2024-01-27T07:49:59;2.56;96.98
69776;DHT22;57049;51.450;-2.516;2024-01-27T07:52:25;2.56;96.94
69776;DHT22;57049;51.450;-2.516;2024-01-27T07:54:50;2.56;96.97
69776;DHT22;57049;51.450;-2.516;2024-01-27T07:57:16;2.60;96.92
69776;DHT22;57049;51.450;-2.516;2024-01-27T07:59:41;2.67;96.90
69776;DHT22;57049;51.450;-2.516;2024-01-27T08:02:07;2.72;96.74
69776;DHT22;57049;51.450;-2.516;2024-01-27T08:04:33;2.79;96.67
69776;DHT22;57049;51.450;-2.516;2024-01-27T08:06:58;2.89;96.51
69776;DHT22;57049;51.450;-2.516;2024-01-27T08:09:24;2.96;96.07
69776;DHT22;57049;51.450;-2.516;2024-01-27T08:11:50;2.99;96.30
69776;DHT22;57049;51.450;-2.516;2024-01-27T08:14:18;3.03;96.11
69776;DHT22;57049;51.450;-2.516;2024-01-27T08:16:47;3.03;96.09
69776;DHT22;57049;51.450;-2.516;2024-01-27T08:19:15;3.07;96.16
69776;DHT22;57049;51.450;-2.516;2024-01-27T08:21:46;3.10;96.17
69776;DHT22;57049;51.450;-2.516;2024-01-27T08:24:13;3.16;96.19
69776;DHT22;57049;51.450;-2.516;2024-01-27T08:26:45;3.27;96.14
69776;DHT22;57049;51.450;-2.516;2024-01-27T08:29:39;3.30;95.83
69776;DHT22;57049;51.450;-2.516;2024-01-27T08:32:39;3.28;95.78
69776;DHT22;57049;51.450;-2.516;2024-01-27T08:35:15;3.31;95.41
69776;DHT22;57049;51.450;-2.516;2024-01-27T08:38:11;3.31;95.68
69776;DHT22;57049;51.450;-2.516;2024-01-27T08:47:58;3.44;95.33
69776;DHT22;57049;51.450;-2.516;2024-01-27T08:53:34;3.48;95.32
69776;DHT22;57049;51.450;-2.516;2024-01-27T08:56:21;3.50;95.39
69776;DHT22;57049;51.450;-2.516;2024-01-27T08:59:15;3.55;95.20
69776;DHT22;57049;51.450;-2.516;2024-01-27T09:08:53;3.72;95.02
69776;DHT22;57049;51.450;-2.516;2024-01-27T09:11:22;3.81;94.90
69776;DHT22;57049;51.450;-2.516;2024-01-27T09:13:49;3.85;94.82
69776;DHT22;57049;51.450;-2.516;2024-01-27T09:16:26;3.91;94.74
69776;DHT22;57049;51.450;-2.516;2024-01-27T09:18:54;3.98;94.63
69776;DHT22;57049;51.450;-2.516;2024-01-27T09:21:23;4.02;94.74
69776;DHT22;57049;51.450;-2.516;2024-01-27T09:24:12;4.06;94.65
69776;DHT22;57049;51.450;-2.516;2024-01-27T09:26:41;4.09;94.73
69776;DHT22;57049;51.450;-2.516;2024-01-27T09:29:09;4.13;94.67
69776;DHT22;57049;51.450;-2.516;2024-01-27T09:31:35;4.22;94.40
69776;DHT22;57049;51.450;-2.516;2024-01-27T09:34:01;4.30;94.32
69776;DHT22;57049;51.450;-2.516;2024-01-27T09:36:27;4.36;94.02
69776;DHT22;57049;51.450;-2.516;2024-01-27T09:38:53;4.40;93.65
69776;DHT22;57049;51.450;-2.516;2024-01-27T09:41:20;4.52;94.06
69776;DHT22;57049;51.450;-2.516;2024-01-27T09:43:52;4.60;93.71
69776;DHT22;57049;51.450;-2.516;2024-01-27T09:46:19;4.68;93.81
69776;DHT22;57049;51.450;-2.516;2024-01-27T09:48:45;4.80;93.63
69776;DHT22;57049;51.450;-2.516;2024-01-27T09:51:11;4.87;93.14
69776;DHT22;57049;51.450;-2.516;2024-01-27T09:53:39;5.01;93.20
69776;DHT22;57049;51.450;-2.516;2024-01-27T09:56:09;5.14;92.80
69776;DHT22;57049;51.450;-2.516;2024-01-27T09:58:35;5.24;92.38
69776;DHT22;57049;51.450;-2.516;2024-01-27T10:01:01;5.28;92.23
69776;DHT22;57049;51.450;-2.516;2024-01-27T10:03:27;5.29;91.54
69776;DHT22;57049;51.450;-2.516;2024-01-27T10:05:55;5.36;91.42
69776;DHT22;57049;51.450;-2.516;2024-01-27T10:08:21;5.35;91.24
69776;DHT22;57049;51.450;-2.516;2024-01-27T10:10:49;5.39;91.31
69776;DHT22;57049;51.450;-2.516;2024-01-27T10:13:17;5.47;91.56
69776;DHT22;57049;51.450;-2.516;2024-01-27T10:15:43;5.52;91.31
69776;DHT22;57049;51.450;-2.516;2024-01-27T10:18:09;5.63;91.54
69776;DHT22;57049;51.450;-2.516;2024-01-27T10:20:39;5.70;91.05
69776;DHT22;57049;51.450;-2.516;2024-01-27T10:23:12;5.83;90.90
69776;DHT22;57049;51.450;-2.516;2024-01-27T10:25:41;5.89;90.82
69776;DHT22;57049;51.450;-2.516;2024-01-27T10:28:07;5.98;90.50
69776;DHT22;57049;51.450;-2.516;2024-01-27T10:30:34;6.01;90.66
69776;DHT22;57049;51.450;-2.516;2024-01-27T10:32:59;6.08;90.16
69776;DHT22;57049;51.450;-2.516;2024-01-27T10:35:25;6.13;90.03
69776;DHT22;57049;51.450;-2.516;2024-01-27T10:37:52;6.27;90.03
69776;DHT22;57049;51.450;-2.516;2024-01-27T10:40:18;6.37;89.75
69776;DHT22;57049;51.450;-2.516;2024-01-27T10:42:45;6.37;89.73
69776;DHT22;57049;51.450;-2.516;2024-01-27T10:45:11;6.46;89.65
69776;DHT22;57049;51.450;-2.516;2024-01-27T10:47:38;6.49;89.64
69776;DHT22;57049;51.450;-2.516;2024-01-27T10:50:08;6.53;89.64
69776;DHT22;57049;51.450;-2.516;2024-01-27T10:52:38;6.65;89.66
69776;DHT22;57049;51.450;-2.516;2024-01-27T10:55:04;6.67;89.57
69776;DHT22;57049;51.450;-2.516;2024-01-27T10:57:36;6.78;89.54
69776;DHT22;57049;51.450;-2.516;2024-01-27T11:00:06;6.79;89.38
69776;DHT22;57049;51.450;-2.516;2024-01-27T11:02:34;6.79;89.70
69776;DHT22;57049;51.450;-2.516;2024-01-27T11:05:04;6.86;89.72
69776;DHT22;57049;51.450;-2.516;2024-01-27T11:07:32;6.92;89.74
69776;DHT22;57049;51.450;-2.516;2024-01-27T11:09:58;6.93;90.01
69776;DHT22;57049;51.450;-2.516;2024-01-27T11:12:24;7.06;89.92
69776;DHT22;57049;51.450;-2.516;2024-01-27T11:14:51;7.09;89.99
69776;DHT22;57049;51.450;-2.516;2024-01-27T11:17:17;7.20;90.18
69776;DHT22;57049;51.450;-2.516;2024-01-27T11:19:45;7.26;90.01
69776;DHT22;57049;51.450;-2.516;2024-01-27T11:22:27;7.38;89.77
69776;DHT22;57049;51.450;-2.516;2024-01-27T11:27:35;7.64;89.10
69776;DHT22;57049;51.450;-2.516;2024-01-27T11:30:01;7.70;88.93
69776;DHT22;57049;51.450;-2.516;2024-01-27T11:32:27;7.77;88.63
69776;DHT22;57049;51.450;-2.516;2024-01-27T11:34:53;7.92;89.24
69776;DHT22;57049;51.450;-2.516;2024-01-27T11:37:18;8.01;89.14
69776;DHT22;57049;51.450;-2.516;2024-01-27T11:39:50;8.15;89.21
69776;DHT22;57049;51.450;-2.516;2024-01-27T11:42:16;8.19;88.80
69776;DHT22;57049;51.450;-2.516;2024-01-27T11:44:43;8.36;88.16
69776;DHT22;57049;51.450;-2.516;2024-01-27T11:47:17;8.50;87.65
69776;DHT22;57049;51.450;-2.516;2024-01-27T11:49:44;8.50;87.32
69776;DHT22;57049;51.450;-2.516;2024-01-27T11:52:15;8.49;87.54
69776;DHT22;57049;51.450;-2.516;2024-01-27T11:54:40;8.46;87.57
69776;DHT22;57049;51.450;-2.516;2024-01-27T11:57:06;8.40;87.65
69776;DHT22;57049;51.450;-2.516;2024-01-27T11:59:33;8.45;87.81
69776;DHT22;57049;51.450;-2.516;2024-01-27T12:02:00;8.39;88.23
69776;DHT22;57049;51.450;-2.516;2024-01-27T12:04:26;8.43;88.73
69776;DHT22;57049;51.450;-2.516;2024-01-27T12:06:53;8.52;87.78
69776;DHT22;57049;51.450;-2.516;2024-01-27T12:09:19;8.63;87.33
69776;DHT22;57049;51.450;-2.516;2024-01-27T12:11:45;8.67;86.59
69776;DHT22;57049;51.450;-2.516;2024-01-27T12:14:11;8.63;85.79
69776;DHT22;57049;51.450;-2.516;2024-01-27T12:16:37;8.66;86.11
69776;DHT22;57049;51.450;-2.516;2024-01-27T12:19:03;8.66;86.08
69776;DHT22;57049;51.450;-2.516;2024-01-27T12:21:28;8.66;85.92
69776;DHT22;57049;51.450;-2.516;2024-01-27T12:23:56;8.66;85.66
69776;DHT22;57049;51.450;-2.516;2024-01-27T12:26:26;8.64;86.15
69776;DHT22;57049;51.450;-2.516;2024-01-27T12:28:51;8.70;85.53
69776;DHT22;57049;51.450;-2.516;2024-01-27T12:31:18;8.84;85.50
69776;DHT22;57049;51.450;-2.516;2024-01-27T12:36:19;9.03;84.24
69776;DHT22;57049;51.450;-2.516;2024-01-27T12:38:59;9.12;84.12
69776;DHT22;57049;51.450;-2.516;2024-01-27T12:41:25;9.11;84.03
69776;DHT22;57049;51.450;-2.516;2024-01-27T12:43:52;9.11;84.15
69776;DHT22;57049;51.450;-2.516;2024-01-27T12:46:17;9.08;84.34
69776;DHT22;57049;51.450;-2.516;2024-01-27T12:48:46;9.11;83.44
69776;DHT22;57049;51.450;-2.516;2024-01-27T12:51:12;9.15;83.31
69776;DHT22;57049;51.450;-2.516;2024-01-27T12:53:39;9.25;83.27
69776;DHT22;57049;51.450;-2.516;2024-01-27T12:56:15;9.28;83.46
69776;DHT22;57049;51.450;-2.516;2024-01-27T12:58:41;9.38;83.14
69776;DHT22;57049;51.450;-2.516;2024-01-27T13:01:08;9.43;82.55
69776;DHT22;57049;51.450;-2.516;2024-01-27T13:03:34;9.46;82.56
69776;DHT22;57049;51.450;-2.516;2024-01-27T13:06:00;9.50;82.80
69776;DHT22;57049;51.450;-2.516;2024-01-27T13:08:26;9.65;82.89
69776;DHT22;57049;51.450;-2.516;2024-01-27T13:10:51;9.69;82.67
69776;DHT22;57049;51.450;-2.516;2024-01-27T13:13:17;9.72;82.79
69776;DHT22;57049;51.450;-2.516;2024-01-27T13:15:42;9.75;82.20
69776;DHT22;57049;51.450;-2.516;2024-01-27T13:18:09;9.70;81.74
69776;DHT22;57049;51.450;-2.516;2024-01-27T13:20:35;9.72;81.77
69776;DHT22;57049;51.450;-2.516;2024-01-27T13:23:01;9.60;82.32
69776;DHT22;57049;51.450;-2.516;2024-01-27T13:25:26;9.56;82.21
69776;DHT22;57049;51.450;-2.516;2024-01-27T13:27:52;9.46;82.10
69776;DHT22;57049;51.450;-2.516;2024-01-27T13:30:17;9.36;82.45
69776;DHT22;57049;51.450;-2.516;2024-01-27T13:32:43;9.29;82.66
69776;DHT22;57049;51.450;-2.516;2024-01-27T13:35:09;9.29;83.12
69776;DHT22;57049;51.450;-2.516;2024-01-27T13:37:35;9.36;83.21
69776;DHT22;57049;51.450;-2.516;2024-01-27T13:40:01;9.48;82.86
69776;DHT22;57049;51.450;-2.516;2024-01-27T13:42:27;9.52;83.37
69776;DHT22;57049;51.450;-2.516;2024-01-27T13:44:52;9.53;82.84
69776;DHT22;57049;51.450;-2.516;2024-01-27T13:47:18;9.56;82.71
69776;DHT22;57049;51.450;-2.516;2024-01-27T13:49:44;9.49;83.18
69776;DHT22;57049;51.450;-2.516;2024-01-27T13:52:10;9.45;83.05
69776;DHT22;57049;51.450;-2.516;2024-01-27T13:54:36;9.42;83.51
69776;DHT22;57049;51.450;-2.516;2024-01-27T13:57:02;9.34;84.18
69776;DHT22;57049;51.450;-2.516;2024-01-27T13:59:28;9.25;84.68
69776;DHT22;57049;51.450;-2.516;2024-01-27T14:01:54;9.17;84.54
69776;DHT22;57049;51.450;-2.516;2024-01-27T14:04:20;9.18;84.69
69776;DHT22;57049;51.450;-2.516;2024-01-27T14:06:46;9.18;84.95
69776;DHT22;57049;51.450;-2.516;2024-01-27T14:09:12;9.14;85.07
69776;DHT22;57049;51.450;-2.516;2024-01-27T14:11:38;9.10;85.06
69776;DHT22;57049;51.450;-2.516;2024-01-27T14:14:04;9.11;84.59
69776;DHT22;57049;51.450;-2.516;2024-01-27T14:16:29;9.10;84.60
69776;DHT22;57049;51.450;-2.516;2024-01-27T14:18:55;9.11;84.92
69776;DHT22;57049;51.450;-2.516;2024-01-27T14:21:20;9.04;84.24
69776;DHT22;57049;51.450;-2.516;2024-01-27T14:23:46;9.01;83.67
69776;DHT22;57049;51.450;-2.516;2024-01-27T14:26:11;9.03;83.37
69776;DHT22;57049;51.450;-2.516;2024-01-27T14:28:43;8.97;83.12
69776;DHT22;57049;51.450;-2.516;2024-01-27T14:31:10;8.96;83.42
69776;DHT22;57049;51.450;-2.516;2024-01-27T14:33:35;8.92;83.23
69776;DHT22;57049;51.450;-2.516;2024-01-27T14:36:01;8.91;83.03
69776;DHT22;57049;51.450;-2.516;2024-01-27T14:38:27;8.92;83.10
69776;DHT22;57049;51.450;-2.516;2024-01-27T14:40:53;8.84;82.89
69776;DHT22;57049;51.450;-2.516;2024-01-27T14:43:19;8.81;82.91
69776;DHT22;57049;51.450;-2.516;2024-01-27T14:45:46;8.80;83.21
69776;DHT22;57049;51.450;-2.516;2024-01-27T14:48:12;8.76;83.54
69776;DHT22;57049;51.450;-2.516;2024-01-27T14:50:37;8.76;83.57
69776;DHT22;57049;51.450;-2.516;2024-01-27T14:53:03;8.73;83.68
69776;DHT22;57049;51.450;-2.516;2024-01-27T14:55:30;8.76;83.55
69776;DHT22;57049;51.450;-2.516;2024-01-27T14:57:56;8.70;83.97
69776;DHT22;57049;51.450;-2.516;2024-01-27T15:00:22;8.68;84.09
69776;DHT22;57049;51.450;-2.516;2024-01-27T15:02:47;8.68;84.32
69776;DHT22;57049;51.450;-2.516;2024-01-27T15:05:13;8.66;84.48
69776;DHT22;57049;51.450;-2.516;2024-01-27T15:07:38;8.61;84.34
69776;DHT22;57049;51.450;-2.516;2024-01-27T15:10:06;8.63;84.30
69776;DHT22;57049;51.450;-2.516;2024-01-27T15:12:31;8.61;84.25
69776;DHT22;57049;51.450;-2.516;2024-01-27T15:14:57;8.60;84.37
69776;DHT22;57049;51.450;-2.516;2024-01-27T15:17:22;8.56;84.75
69776;DHT22;57049;51.450;-2.516;2024-01-27T15:19:49;8.52;85.16
69776;DHT22;57049;51.450;-2.516;2024-01-27T15:22:17;8.50;84.79
69776;DHT22;57049;51.450;-2.516;2024-01-27T15:24:42;8.47;85.49
69776;DHT22;57049;51.450;-2.516;2024-01-27T15:27:08;8.46;85.31
69776;DHT22;57049;51.450;-2.516;2024-01-27T15:29:33;8.46;85.25
69776;DHT22;57049;51.450;-2.516;2024-01-27T15:31:59;8.46;85.50
69776;DHT22;57049;51.450;-2.516;2024-01-27T15:34:24;8.45;85.59
69776;DHT22;57049;51.450;-2.516;2024-01-27T15:36:50;8.53;85.43
69776;DHT22;57049;51.450;-2.516;2024-01-27T15:39:15;8.47;85.64
69776;DHT22;57049;51.450;-2.516;2024-01-27T15:41:41;8.43;85.67
69776;DHT22;57049;51.450;-2.516;2024-01-27T15:44:06;8.39;85.97
69776;DHT22;57049;51.450;-2.516;2024-01-27T15:46:32;8.35;86.23
69776;DHT22;57049;51.450;-2.516;2024-01-27T15:48:57;8.29;86.46